Time;durP1;ratioP1;P1;durP2;ratioP2;P2;SDS_P1;SDS_P2;PMS_P1;PMS_P2;Temp;Humidity;BMP_temperature;BMP_pressure;BME280_temperature;BME280_humidity;BME280_pressure;Samples;Min_cycle;Max_cycle;Signal;HPM_P1;HPM_P2
2023/01/04 00:02:07;;;;;;;1.25;0.30;;;;;;;-2.86;72.03;102170.22;5044399;28;20505;-68
2023/01/04 00:04:34;;;;;;;1.58;0.57;;;;;;;-2.85;71.72;102173.63;5043659;28;20051;-69
2023/01/04 00:07:03;;;;;;;0.93;0.30;;;;;;;-2.86;71.89;102174.44;5043573;28;20051;-69
2023/01/04 00:09:29;;;;;;;1.42;0.20;;;;;;;-2.88;71.76;102183.69;5044094;28;20559;-68
2023/01/04 00:11:56;;;;;;;0.30;0.20;;;;;;;-2.92;71.86;102174.09;5043923;28;20063;-71
2023/01/04 00:14:23;;;;;;;0.60;0.20;;;;;;;-2.93;71.73;102188.56;5044539;28;20055;-68
2023/01/04 00:16:50;;;;;;;0.50;0.20;;;;;;;-2.95;71.71;102183.34;5041207;28;20157;-69
2023/01/04 00:19:17;;;;;;;0.45;0.30;;;;;;;-2.96;71.77;102176.47;5041770;28;20040;-68
2023/01/04 00:21:44;;;;;;;1.05;0.30;;;;;;;-3.00;71.75;102165.97;5042231;28;20045;-68
2023/01/04 00:24:14;;;;;;;1.13;0.30;;;;;;;-2.99;71.62;102176.28;5044309;28;20036;-69
2023/01/04 00:26:42;;;;;;;0.65;0.52;;;;;;;-3.04;71.51;102181.94;5039474;28;20142;-68
2023/01/04 00:29:12;;;;;;;2.97;0.38;;;;;;;-3.04;71.69;102192.16;5043617;28;20748;-68
2023/01/04 00:31:39;;;;;;;0.93;0.30;;;;;;;-3.05;71.39;102190.38;5042387;28;20680;-69
2023/01/04 00:34:07;;;;;;;1.48;0.30;;;;;;;-3.08;71.78;102185.94;5043466;28;20041;-68
2023/01/04 00:36:34;;;;;;;1.05;0.20;;;;;;;-3.08;72.04;102180.84;5043040;28;20132;-68
2023/01/04 00:39:08;;;;;;;2.35;0.70;;;;;;;-3.09;71.85;102184.19;5042410;28;20049;-68
2023/01/04 00:41:39;;;;;;;6.55;0.60;;;;;;;-3.12;71.72;102184.03;5044129;28;20091;-68
2023/01/04 00:44:07;;;;;;;1.85;0.52;;;;;;;-3.10;71.63;102185.00;5042169;28;20037;-68
2023/01/04 00:46:35;;;;;;;1.83;0.30;;;;;;;-3.11;71.67;102185.78;5044456;28;20063;-69
2023/01/04 00:49:03;;;;;;;5.65;0.70;;;;;;;-3.10;71.68;102189.19;5041735;28;20041;-69
2023/01/04 00:51:31;;;;;;;1.45;0.20;;;;;;;-3.10;71.82;102186.66;5038772;28;20041;-68
2023/01/04 00:54:00;;;;;;;0.60;0.22;;;;;;;-3.10;71.63;102190.13;5043228;28;20056;-68
2023/01/04 00:56:28;;;;;;;1.60;0.30;;;;;;;-3.11;71.62;102188.31;5042539;28;20048;-68
2023/01/04 00:58:57;;;;;;;0.32;0.30;;;;;;;-3.14;71.68;102184.72;5041190;28;20562;-68
2023/01/04 01:01:24;;;;;;;0.70;0.20;;;;;;;-3.12;71.73;102194.25;5041609;28;20047;-68
2023/01/04 01:03:53;;;;;;;0.73;0.30;;;;;;;-3.15;71.51;102186.38;5034071;28;20048;-68
2023/01/04 01:06:21;;;;;;;0.80;0.40;;;;;;;-3.14;71.73;102194.94;5041812;28;20056;-68
2023/01/04 01:08:48;;;;;;;0.57;0.20;;;;;;;-3.16;71.75;102192.28;5042034;28;20072;-69
2023/01/04 01:11:15;;;;;;;1.20;0.40;;;;;;;-3.15;71.67;102196.63;5040974;28;20045;-68
2023/01/04 01:13:42;;;;;;;0.50;0.30;;;;;;;-3.15;70.96;102188.06;5040450;28;20052;-68
2023/01/04 01:16:12;;;;;;;0.95;0.20;;;;;;;-3.17;71.63;102196.50;5031514;28;20037;-69
2023/01/04 01:18:41;;;;;;;1.17;0.20;;;;;;;-3.18;71.73;102189.63;5044493;28;20073;-68
2023/01/04 01:21:09;;;;;;;0.35;0.20;;;;;;;-3.19;71.54;102189.53;5041037;28;20059;-69
2023/01/04 01:23:37;;;;;;;0.85;0.43;;;;;;;-3.20;71.59;102195.44;5042868;28;20048;-68
2023/01/04 01:26:05;;;;;;;0.70;0.30;;;;;;;-3.19;71.68;102192.09;5042611;28;20052;-69
2023/01/04 01:28:34;;;;;;;1.80;0.40;;;;;;;-3.21;71.81;102194.56;5043656;28;20086;-69
2023/01/04 01:31:06;;;;;;;1.15;0.35;;;;;;;-3.22;71.65;102191.91;5042070;28;20052;-69
2023/01/04 01:33:36;;;;;;;2.45;0.35;;;;;;;-3.23;71.74;102196.16;5043112;28;20128;-68
2023/01/04 01:36:03;;;;;;;4.30;0.68;;;;;;;-3.24;71.63;102198.63;5043757;28;20040;-68
2023/01/04 01:38:30;;;;;;;1.38;0.20;;;;;;;-3.24;71.47;102198.63;5040687;28;20045;-69
2023/01/04 01:40:57;;;;;;;1.23;0.30;;;;;;;-3.25;71.59;102196.84;5041910;28;20041;-69
2023/01/04 01:43:49;;;;;;;0.80;0.30;;;;;;;-3.25;71.02;102196.84;5043495;28;20057;-69
2023/01/04 01:46:18;;;;;;;1.17;0.30;;;;;;;-3.26;71.60;102206.19;5042395;28;20044;-69
2023/01/04 01:48:46;;;;;;;0.52;0.30;;;;;;;-3.26;71.49;102197.63;5041495;28;20519;-69
2023/01/04 01:51:16;;;;;;;1.88;0.30;;;;;;;-3.28;71.41;102196.66;5040641;28;20033;-68
2023/01/04 01:53:45;;;;;;;0.60;0.40;;;;;;;-3.34;71.69;102186.94;5041811;28;20550;-68
2023/01/04 01:56:16;;;;;;;1.10;0.30;;;;;;;-3.30;71.50;102188.00;5042790;28;20041;-68
2023/01/04 01:58:48;;;;;;;1.13;0.30;;;;;;;-3.31;71.42;102186.25;5041372;28;20040;-69
2023/01/04 02:01:15;;;;;;;2.83;0.40;;;;;;;-3.33;71.38;102178.50;5043596;28;20037;-68
2023/01/04 02:03:43;;;;;;;1.02;0.30;;;;;;;-3.36;71.71;102172.31;5038898;28;20051;-69
2023/01/04 02:06:14;;;;;;;2.80;0.50;;;;;;;-3.34;71.43;102186.06;5040522;28;20049;-68
2023/01/04 02:08:42;;;;;;;1.35;0.30;;;;;;;-3.36;71.45;102173.19;5041019;28;20041;-69
2023/01/04 02:11:11;;;;;;;1.02;0.30;;;;;;;-3.38;71.43;102171.34;5037213;28;20049;-68
2023/01/04 02:16:35;;;;;;;2.00;0.32;;;;;;;-3.42;71.56;102180.50;5041358;28;20725;-68
2023/01/04 02:19:17;;;;;;;1.08;0.28;;;;;;;-3.45;71.24;102178.63;5041706;28;20047;-68
2023/01/04 02:22:07;;;;;;;2.03;0.30;;;;;;;-3.44;71.46;102177.84;5040829;28;20136;-68
2023/01/04 02:24:51;;;;;;;1.85;0.22;;;;;;;-3.47;71.19;102179.31;5041633;28;20041;-68
2023/01/04 02:27:38;;;;;;;0.50;0.35;;;;;;;-3.49;71.48;102180.91;5041547;28;20454;-68
2023/01/04 02:30:29;;;;;;;1.48;0.30;;;;;;;-3.51;71.23;102175.69;5040877;28;20048;-68
2023/01/04 02:33:14;;;;;;;0.65;0.30;;;;;;;-3.56;71.11;102174.53;5038338;28;20499;-68
2023/01/04 02:35:53;;;;;;;3.85;0.50;;;;;;;-3.59;71.26;102171.78;5037886;28;20884;-68
2023/01/04 02:38:27;;;;;;;2.05;0.28;;;;;;;-3.56;71.44;102171.97;5040766;28;20045;-68
2023/01/04 02:41:05;;;;;;;0.73;0.30;;;;;;;-3.57;71.44;102169.34;5034533;28;20453;-68
2023/01/04 02:46:29;;;;;;;0.45;0.22;;;;;;;-3.62;70.89;102164.81;5038270;28;20105;-69
2023/01/04 02:51:46;;;;;;;0.50;0.30;;;;;;;-3.64;71.03;102175.75;5044169;28;20048;-68
2023/01/04 02:54:16;;;;;;;3.33;0.40;;;;;;;-3.67;71.28;102173.00;5042867;28;20045;-68
2023/01/04 02:57:00;;;;;;;1.80;0.30;;;;;;;-3.67;71.06;102175.53;5048836;28;20053;-68
2023/01/04 02:59:48;;;;;;;1.02;0.30;;;;;;;-3.68;71.09;102173.78;5037525;28;20614;-68
2023/01/04 03:08:19;;;;;;;1.40;0.30;;;;;;;-3.80;71.02;102163.72;5043345;28;20067;-69
2023/01/04 03:10:53;;;;;;;0.88;0.50;;;;;;;-3.77;71.10;102168.13;5046726;28;20045;-69
2023/01/04 03:13:24;;;;;;;2.55;0.40;;;;;;;-3.82;71.24;102159.28;5047121;28;20449;-68
2023/01/04 03:15:55;;;;;;;0.47;0.30;;;;;;;-3.80;71.31;102147.50;5045841;28;20081;-68
2023/01/04 03:18:26;;;;;;;1.63;0.40;;;;;;;-3.82;71.21;102141.41;5045520;28;20051;-68
2023/01/04 03:20:57;;;;;;;0.40;0.28;;;;;;;-3.82;71.19;102143.97;5049243;28;20575;-68
2023/01/04 03:37:36;;;;;;;1.10;0.32;;;;;;;-3.94;71.28;102110.91;5044035;28;20060;-68
2023/01/04 03:48:47;;;;;;;0.55;0.40;;;;;;;-4.01;71.36;102116.41;5048913;28;20193;-69
2023/01/04 03:51:17;;;;;;;1.08;0.30;;;;;;;-4.04;70.97;102109.47;5051571;28;20144;-70
2023/01/04 03:53:53;;;;;;;1.30;0.40;;;;;;;-4.05;71.14;102105.13;5047663;28;20037;-69
2023/01/04 03:56:22;;;;;;;1.48;0.30;;;;;;;-4.10;70.88;102093.75;5042365;28;20668;-69
2023/01/04 03:58:50;;;;;;;0.63;0.40;;;;;;;-4.09;71.00;102093.88;5048126;28;20045;-69
2023/01/04 04:01:19;;;;;;;1.08;0.38;;;;;;;-4.09;71.11;102087.88;5049645;28;20052;-69
2023/01/04 04:09:16;;;;;;;2.65;0.50;;;;;;;-4.12;71.23;102095.34;5047231;28;20514;-69
2023/01/04 04:11:43;;;;;;;1.15;0.40;;;;;;;-4.13;71.33;102091.91;5049149;28;20045;-69
2023/01/04 04:14:10;;;;;;;1.75;0.35;;;;;;;-4.13;71.00;102091.91;5044976;28;20055;-69
2023/01/04 04:16:37;;;;;;;3.38;0.30;;;;;;;-4.14;71.19;102079.94;5050737;28;20059;-69
2023/01/04 04:19:04;;;;;;;1.67;0.30;;;;;;;-4.13;71.11;102075.72;5047821;28;20049;-69
2023/01/04 04:21:31;;;;;;;4.07;0.43;;;;;;;-4.15;71.04;102059.44;5050260;28;20059;-69
2023/01/04 04:23:58;;;;;;;0.90;0.40;;;;;;;-4.14;71.01;102062.06;5049013;28;20399;-69
2023/01/04 04:26:26;;;;;;;0.73;0.30;;;;;;;-4.16;71.07;102071.28;5049439;28;20423;-69
2023/01/04 04:28:53;;;;;;;1.92;0.45;;;;;;;-4.16;71.41;102071.28;5049385;28;20057;-69
2023/01/04 04:31:20;;;;;;;0.47;0.30;;;;;;;-4.16;71.16;102067.88;5050348;28;20723;-69
2023/01/04 04:33:46;;;;;;;1.67;0.32;;;;;;;-4.15;71.25;102064.56;5048152;28;20045;-69
2023/01/04 04:36:13;;;;;;;1.35;0.40;;;;;;;-4.16;71.01;102070.41;5050836;28;20392;-69
2023/01/04 04:38:40;;;;;;;1.92;0.60;;;;;;;-4.18;71.14;102067.78;5046911;28;20047;-69
2023/01/04 04:43:55;;;;;;;0.65;0.30;;;;;;;-4.18;71.06;102066.91;5049302;28;20119;-69
2023/01/04 04:46:22;;;;;;;0.88;0.40;;;;;;;-4.20;71.12;102073.59;5037921;28;20045;-69
2023/01/04 04:48:49;;;;;;;1.60;0.57;;;;;;;-4.21;71.34;102071.78;5047168;28;20053;-69
2023/01/04 04:51:16;;;;;;;0.50;0.30;;;;;;;-4.23;70.62;102071.72;5050062;28;20041;-70
2023/01/04 04:53:43;;;;;;;0.95;0.40;;;;;;;-4.24;70.85;102071.59;5046731;28;20460;-69
2023/01/04 04:56:10;;;;;;;3.47;0.50;;;;;;;-4.24;70.93;102071.59;5049841;28;20067;-69
2023/01/04 04:58:38;;;;;;;1.17;0.52;;;;;;;-4.24;71.06;102069.06;5049403;28;20127;-69
2023/01/04 05:01:06;;;;;;;1.42;0.40;;;;;;;-4.25;70.82;102069.84;5048107;28;20059;-69
2023/01/04 05:03:34;;;;;;;1.23;0.40;;;;;;;-4.25;71.07;102067.31;5049463;28;20045;-69
2023/01/04 05:06:01;;;;;;;1.13;0.30;;;;;;;-4.26;70.95;102073.19;5047959;28;20447;-69
2023/01/04 05:08:28;;;;;;;0.45;0.28;;;;;;;-4.26;71.26;102068.09;5039721;28;20053;-69
2023/01/04 05:10:55;;;;;;;2.88;0.40;;;;;;;-4.26;71.33;102068.09;5045939;28;20128;-69
2023/01/04 05:13:21;;;;;;;1.35;0.30;;;;;;;-4.26;71.35;102066.44;5049815;28;20596;-69
2023/01/04 05:15:50;;;;;;;0.60;0.30;;;;;;;-4.26;71.22;102066.44;5046896;28;20466;-69
2023/01/04 05:18:21;;;;;;;0.40;0.30;;;;;;;-4.26;71.33;102057.91;5047308;28;20081;-69
2023/01/04 05:20:48;;;;;;;1.27;0.30;;;;;;;-4.23;71.06;102058.09;5047117;28;20128;-69
2023/01/04 05:23:18;;;;;;;1.63;0.30;;;;;;;-4.22;71.40;102059.84;5045619;28;20681;-69
2023/01/04 05:25:45;;;;;;;2.25;0.65;;;;;;;-4.22;71.76;102057.28;5048894;28;20052;-69
2023/01/04 05:28:12;;;;;;;0.70;0.38;;;;;;;-4.21;71.32;102056.47;5048391;28;20139;-69
2023/01/04 05:30:50;;;;;;;1.05;0.50;;;;;;;-4.21;71.64;102057.41;5046055;28;20616;-69
2023/01/04 05:33:20;;;;;;;4.63;0.68;;;;;;;-4.20;71.30;102064.25;5046553;28;20041;-69
2023/01/04 05:35:47;;;;;;;3.00;0.90;;;;;;;-4.20;71.60;102066.81;5048828;28;20410;-69
2023/01/04 05:38:15;;;;;;;0.60;0.40;;;;;;;-4.20;71.55;102059.16;5045096;28;20067;-69
2023/01/04 05:40:42;;;;;;;1.48;0.50;;;;;;;-4.20;71.58;102048.06;5047806;28;20422;-69
2023/01/04 05:43:09;;;;;;;0.75;0.30;;;;;;;-4.18;71.64;102043.94;5045559;28;20041;-69
2023/01/04 05:45:36;;;;;;;0.40;0.30;;;;;;;-4.15;71.33;102031.38;5048490;28;20045;-69
2023/01/04 05:48:03;;;;;;;2.55;0.47;;;;;;;-4.16;71.68;102024.50;5047320;28;20136;-69
2023/01/04 05:50:32;;;;;;;0.63;0.30;;;;;;;-4.13;71.89;102022.13;5049242;28;20059;-70
2023/01/04 05:52:59;;;;;;;0.35;0.30;;;;;;;-4.14;71.75;102022.94;5045592;28;20045;-69
2023/01/04 05:55:26;;;;;;;0.80;0.50;;;;;;;-4.19;71.58;102019.19;5044849;28;20696;-69
2023/01/04 05:57:53;;;;;;;1.90;0.40;;;;;;;-4.18;71.83;102015.88;5045431;28;20041;-69
2023/01/04 06:00:20;;;;;;;1.40;0.38;;;;;;;-4.18;72.22;102026.09;5047617;28;20063;-69
2023/01/04 06:02:47;;;;;;;2.45;0.30;;;;;;;-4.17;71.84;102022.75;5046206;28;20067;-69
2023/01/04 06:05:14;;;;;;;0.50;0.25;;;;;;;-4.16;71.70;102029.59;5047099;28;20049;-69
2023/01/04 06:07:43;;;;;;;1.48;0.20;;;;;;;-4.16;72.28;102033.03;5046102;28;20414;-69
2023/01/04 06:10:12;;;;;;;0.57;0.30;;;;;;;-4.12;72.01;102031.56;5046389;28;20053;-69
2023/01/04 06:12:39;;;;;;;0.57;0.25;;;;;;;-4.11;72.33;102025.66;5048426;28;20051;-69
2023/01/04 06:15:08;;;;;;;0.80;0.30;;;;;;;-4.12;71.75;102021.34;5045206;28;20055;-69
2023/01/04 06:17:35;;;;;;;0.57;0.17;;;;;;;-4.12;72.10;102019.69;5048463;28;20132;-69
2023/01/04 06:20:02;;;;;;;0.63;0.30;;;;;;;-4.11;72.33;102021.44;5046967;28;20458;-69
2023/01/04 06:22:29;;;;;;;0.40;0.20;;;;;;;-4.22;71.93;102003.72;5045693;28;20136;-69
2023/01/04 06:24:58;;;;;;;1.13;0.25;;;;;;;-4.09;72.35;102032.63;5041460;28;20667;-69
2023/01/04 06:27:25;;;;;;;0.70;0.20;;;;;;;-4.06;72.13;102037.03;5047946;28;20483;-69
2023/01/04 06:29:52;;;;;;;0.30;0.20;;;;;;;-4.06;71.91;102037.03;5046076;28;20051;-69
2023/01/04 06:32:19;;;;;;;0.43;0.43;;;;;;;-4.08;71.73;102025.84;5048465;28;20445;-69
2023/01/04 06:34:45;;;;;;;1.30;0.45;;;;;;;-4.09;71.94;102029.19;5047457;28;20127;-69
2023/01/04 06:37:13;;;;;;;1.83;0.20;;;;;;;-4.11;71.93;102018.88;5045165;28;20049;-69
2023/01/04 06:39:39;;;;;;;0.40;0.30;;;;;;;-4.07;71.89;102025.03;5045838;28;20495;-69
2023/01/04 06:42:43;;;;;;;9.68;0.70;;;;;;;-4.06;72.05;102021.72;5044650;28;20051;-69
2023/01/04 06:44:56;;;;;;;0.47;0.30;;;;;;;-4.08;72.16;102016.50;5044212;28;21379;-69
2023/01/04 06:47:23;;;;;;;0.70;0.38;;;;;;;-4.09;72.42;102013.88;5048452;28;20049;-69
2023/01/04 06:49:50;;;;;;;0.52;0.20;;;;;;;-4.10;72.38;102015.56;5039565;28;20057;-68
2023/01/04 06:52:17;;;;;;;11.63;0.30;;;;;;;-4.08;72.51;102013.09;5039282;28;20128;-69
2023/01/04 06:54:43;;;;;;;1.13;0.30;;;;;;;-4.08;72.31;102001.19;5042858;28;20044;-70
2023/01/04 06:57:12;;;;;;;0.30;0.17;;;;;;;-4.08;72.74;102007.97;5046246;28;20352;-69
2023/01/04 06:59:39;;;;;;;0.20;0.13;;;;;;;-4.08;72.62;101997.78;5043050;28;20063;-69
2023/01/04 07:02:06;;;;;;;1.20;0.28;;;;;;;-4.06;72.29;101993.66;5045052;28;20048;-68
2023/01/04 07:04:33;;;;;;;0.38;0.20;;;;;;;-4.13;72.38;101981.28;5045185;28;20045;-70
2023/01/04 07:07:00;;;;;;;0.38;0.17;;;;;;;-4.08;72.58;101987.56;5043591;28;20078;-69
2023/01/04 07:09:27;;;;;;;0.50;0.20;;;;;;;-4.04;72.34;101978.41;5043952;28;20092;-69
2023/01/04 07:11:54;;;;;;;2.00;0.20;;;;;;;-4.01;72.29;101976.94;5040567;28;20045;-70
2023/01/04 07:14:22;;;;;;;1.30;0.20;;;;;;;-3.98;72.75;101972.03;5041451;28;20045;-70
2023/01/04 07:16:49;;;;;;;0.55;0.20;;;;;;;-3.96;72.78;101952.56;5043331;28;20414;-69
2023/01/04 07:19:16;;;;;;;0.30;0.10;;;;;;;-3.95;72.55;101939.03;5043733;28;20048;-69
2023/01/04 07:21:43;;;;;;;0.40;0.10;;;;;;;-3.94;72.75;101956.09;5043505;28;20051;-69
2023/01/04 07:24:10;;;;;;;1.95;0.20;;;;;;;-3.90;72.47;101960.59;5043886;28;20052;-69
2023/01/04 07:26:37;;;;;;;0.25;0.20;;;;;;;-3.87;72.54;101949.66;5043566;28;20557;-69
2023/01/04 07:29:16;;;;;;;0.73;0.30;;;;;;;-3.85;72.89;101941.31;5045759;28;20051;-70
2023/01/04 07:31:47;;;;;;;1.15;0.20;;;;;;;-3.82;72.66;101943.16;5045042;28;20063;-69
2023/01/04 07:34:15;;;;;;;0.60;0.20;;;;;;;-3.80;73.07;101938.16;5039867;28;20736;-69
2023/01/04 07:36:42;;;;;;;0.45;0.20;;;;;;;-3.77;72.87;101943.44;5044802;28;20059;-69
2023/01/04 07:39:11;;;;;;;1.95;0.20;;;;;;;-3.87;72.70;101924.13;5047716;28;20531;-69
2023/01/04 07:41:38;;;;;;;1.83;0.32;;;;;;;-3.74;72.93;101941.06;5044977;28;20037;-69
2023/01/04 07:44:06;;;;;;;0.60;0.22;;;;;;;-3.74;72.87;101924.06;5043054;28;20049;-70
2023/01/04 07:46:34;;;;;;;0.88;0.50;;;;;;;-3.69;72.75;101937.13;5048772;28;20423;-69
2023/01/04 07:49:02;;;;;;;0.30;0.20;;;;;;;-3.66;72.78;101937.28;5051933;28;20103;-69
2023/01/04 07:51:30;;;;;;;0.85;0.45;;;;;;;-3.64;72.83;101940.81;5048383;28;20040;-69
2023/01/04 07:53:58;;;;;;;0.63;0.30;;;;;;;-3.72;72.97;101924.16;5049382;28;20052;-69
2023/01/04 07:56:25;;;;;;;0.85;0.22;;;;;;;-3.59;72.73;101934.28;5048810;28;20053;-69
2023/01/04 07:58:55;;;;;;;0.30;0.20;;;;;;;-3.56;72.91;101931.91;5049646;28;20047;-70
2023/01/04 08:01:23;;;;;;;0.77;0.30;;;;;;;-3.56;73.11;101916.56;5049942;28;20044;-69
2023/01/04 08:03:51;;;;;;;0.68;0.38;;;;;;;-3.55;72.94;101890.25;5048349;28;20135;-69
2023/01/04 08:06:21;;;;;;;0.22;0.20;;;;;;;-3.48;72.88;101892.34;5049233;28;20079;-69
2023/01/04 08:08:48;;;;;;;0.20;0.20;;;;;;;-3.46;72.86;101895.00;5048743;28;20044;-69
2023/01/04 08:11:18;;;;;;;0.85;0.10;;;;;;;-3.44;72.84;101908.75;5049017;28;20048;-69
2023/01/04 08:13:45;;;;;;;0.10;0.10;;;;;;;-3.41;72.94;101911.47;5045969;28;20102;-69
2023/01/04 08:16:20;;;;;;;0.20;0.10;;;;;;;-3.40;72.96;101898.78;5049145;28;20498;-69
2023/01/04 08:18:47;;;;;;;0.73;0.15;;;;;;;-3.40;72.84;101896.22;5048808;28;20052;-70
2023/01/04 08:21:14;;;;;;;0.22;0.15;;;;;;;-3.38;72.99;101898.88;5048525;28;20063;-70
2023/01/04 08:23:42;;;;;;;3.03;0.20;;;;;;;-3.36;72.86;101902.38;5048097;28;20497;-69
2023/01/04 08:26:11;;;;;;;1.95;0.15;;;;;;;-3.34;72.99;101902.47;5049402;28;20055;-69
2023/01/04 08:28:38;;;;;;;0.85;0.20;;;;;;;-3.33;72.86;101899.09;5049376;28;20051;-70
2023/01/04 08:31:08;;;;;;;2.22;0.13;;;;;;;-3.33;72.93;101897.47;5050252;28;20049;-70
2023/01/04 08:33:36;;;;;;;0.93;0.15;;;;;;;-3.30;73.05;101897.63;5048858;28;20051;-69
2023/01/04 08:36:12;;;;;;;1.55;0.10;;;;;;;-3.35;72.91;101878.59;5048257;28;20045;-69
2023/01/04 08:38:39;;;;;;;2.40;0.20;;;;;;;-3.25;72.99;101879.97;5049198;28;20427;-69
2023/01/04 08:41:08;;;;;;;0.73;0.20;;;;;;;-3.24;73.19;101876.66;5047246;28;20077;-70
2023/01/04 08:43:35;;;;;;;0.30;0.17;;;;;;;-3.23;73.13;101871.59;5048287;28;20041;-70
2023/01/04 08:46:02;;;;;;;1.88;0.10;;;;;;;-3.26;73.13;101853.56;5048185;28;20044;-70
2023/01/04 08:48:29;;;;;;;0.60;0.20;;;;;;;-3.18;73.10;101862.53;5047118;28;20407;-70
2023/01/04 08:50:59;;;;;;;0.70;0.20;;;;;;;-3.15;73.16;101866.94;5049849;28;20046;-70
2023/01/04 08:53:26;;;;;;;0.20;0.20;;;;;;;-3.13;73.03;101862.78;5047329;28;20041;-70
2023/01/04 08:55:54;;;;;;;0.47;0.25;;;;;;;-3.12;73.02;101854.31;5046165;28;20048;-70
2023/01/04 08:58:23;;;;;;;0.80;0.25;;;;;;;-3.17;73.27;101836.16;5048181;28;20513;-72
2023/01/04 09:00:50;;;;;;;3.10;0.20;;;;;;;-3.12;73.24;101838.97;5047014;28;20060;-74
2023/01/04 09:03:17;;;;;;;0.30;0.20;;;;;;;-3.04;73.04;101859.84;5047818;28;20626;-73
2023/01/04 09:05:45;;;;;;;0.30;0.20;;;;;;;-3.14;73.64;101832.03;5046962;28;20044;-78
2023/01/04 09:08:12;;;;;;;0.80;0.20;;;;;;;-3.00;73.33;101852.41;5050591;28;20475;-77
2023/01/04 09:10:39;;;;;;;0.22;0.20;;;;;;;-3.18;73.36;101815.66;5053220;28;20045;-77
2023/01/04 09:13:06;;;;;;;0.75;0.20;;;;;;;-2.95;73.52;101855.22;5051229;28;20044;-76
2023/01/04 09:15:36;;;;;;;1.60;0.30;;;;;;;-2.99;73.22;101831.19;5051377;28;20049;-81
2023/01/04 09:18:04;;;;;;;3.63;0.20;;;;;;;-2.90;73.57;101835.00;5051521;28;20044;-78
2023/01/04 09:20:31;;;;;;;2.92;0.30;;;;;;;-2.99;73.25;101818.41;5048478;28;20111;-77
2023/01/04 09:22:58;;;;;;;1.05;0.20;;;;;;;-2.85;73.55;101834.44;5049142;28;20563;-76
2023/01/04 09:25:25;;;;;;;1.42;0.20;;;;;;;-2.82;73.45;101828.59;5049689;28;20049;-82
2023/01/04 09:27:52;;;;;;;2.55;0.47;;;;;;;-2.78;73.38;101828.00;5052001;28;20048;-86
2023/01/04 09:30:19;;;;;;;1.77;0.30;;;;;;;-2.81;73.52;101804.81;5053106;28;20560;-79
2023/01/04 09:32:47;;;;;;;0.85;0.40;;;;;;;-2.87;73.46;101773.81;5048043;28;20080;-86
2023/01/04 09:35:14;;;;;;;0.50;0.30;;;;;;;-2.85;73.30;101774.75;5052486;28;20063;-84
2023/01/04 09:37:41;;;;;;;1.63;0.40;;;;;;;-2.67;73.57;101796.19;5052408;28;20395;-78
2023/01/04 09:40:18;;;;;;;1.52;0.30;;;;;;;-2.65;73.37;101799.69;5049147;28;20045;-77
2023/01/04 09:42:46;;;;;;;1.27;0.30;;;;;;;-2.66;73.69;101782.59;5046264;28;20128;-76
2023/01/04 09:45:19;;;;;;;1.67;0.50;;;;;;;-2.67;73.53;101769.75;5043252;28;20059;-76
2023/01/04 09:47:53;;;;;;;1.70;0.40;;;;;;;-2.61;73.63;101770.03;5049078;28;20052;-77
2023/01/04 09:50:25;;;;;;;4.63;1.42;;;;;;;-2.55;73.75;101776.34;5047747;28;20681;-74
2023/01/04 09:53:00;;;;;;;2.97;0.60;;;;;;;-2.56;73.48;101769.47;5044648;28;20049;-76
2023/01/04 09:55:31;;;;;;;0.55;0.32;;;;;;;-2.52;73.74;101766.25;5048632;28;20071;-76
2023/01/04 09:58:04;;;;;;;1.20;0.40;;;;;;;-2.49;73.32;101765.53;5047392;28;20055;-75
2023/01/04 10:00:34;;;;;;;3.08;0.40;;;;;;;-2.56;73.55;101738.78;5046886;28;20077;-76
2023/01/04 10:03:11;;;;;;;0.90;0.45;;;;;;;-2.43;73.36;101752.19;5049295;28;20045;-76
2023/01/04 10:05:38;;;;;;;0.95;0.30;;;;;;;-2.44;73.39;101735.06;5048457;28;20487;-76
2023/01/04 10:08:14;;;;;;;0.60;0.40;;;;;;;-2.40;73.64;101729.28;5049339;28;20474;-74
2023/01/04 10:10:51;;;;;;;1.23;0.40;;;;;;;-2.38;73.37;101727.69;5045255;28;20051;-73
2023/01/04 10:13:38;;;;;;;1.45;0.70;;;;;;;-2.38;73.64;101718.34;5045325;28;20053;-74
2023/01/04 10:16:15;;;;;;;2.45;0.77;;;;;;;-2.36;73.54;101714.19;5047724;28;20044;-74
2023/01/04 10:18:53;;;;;;;1.00;0.85;;;;;;;-2.38;73.39;101705.53;5046904;28;20047;-74
2023/01/04 10:21:36;;;;;;;6.10;0.52;;;;;;;-2.34;73.68;101694.63;5045835;28;20067;-74
2023/01/04 10:24:24;;;;;;;3.17;0.60;;;;;;;-2.33;73.64;101686.19;5044296;28;20414;-78
2023/01/04 10:27:00;;;;;;;3.38;0.50;;;;;;;-2.32;73.49;101685.38;5049435;28;20048;-77
2023/01/04 10:29:44;;;;;;;1.65;0.40;;;;;;;-2.29;74.02;101676.97;5050231;28;20041;-75
2023/01/04 10:32:19;;;;;;;0.65;0.40;;;;;;;-2.27;73.83;101671.13;5049142;28;20036;-77
2023/01/04 10:34:48;;;;;;;0.73;0.35;;;;;;;-2.27;73.63;101663.44;5046589;28;20099;-77
2023/01/04 10:37:19;;;;;;;0.80;0.50;;;;;;;-2.20;73.88;101661.16;5051153;28;20051;-77
2023/01/04 10:39:50;;;;;;;2.35;0.73;;;;;;;-2.18;73.88;101644.22;5044454;28;20041;-77
2023/01/04 10:42:24;;;;;;;1.02;0.70;;;;;;;-2.19;73.61;101635.66;5045329;28;20412;-77
2023/01/04 10:45:05;;;;;;;5.20;0.70;;;;;;;-2.34;73.83;101607.63;5044613;28;20063;-77
2023/01/04 10:47:40;;;;;;;1.45;0.60;;;;;;;-2.10;74.17;101642.88;5042852;28;20049;-77
2023/01/04 10:50:16;;;;;;;0.80;0.50;;;;;;;-2.08;74.05;101641.25;5050378;28;20052;-77
2023/01/04 10:52:46;;;;;;;3.25;1.17;;;;;;;-2.07;74.04;101633.66;5048702;28;20132;-77
2023/01/04 10:55:18;;;;;;;4.00;0.60;;;;;;;-2.05;74.56;101632.06;5043889;28;20048;-77
2023/01/04 10:57:51;;;;;;;0.93;0.50;;;;;;;-2.02;74.46;101623.66;5049844;28;20053;-77
2023/01/04 11:00:23;;;;;;;3.17;0.50;;;;;;;-2.06;74.31;101614.94;5047991;28;20057;-77
2023/01/04 11:02:58;;;;;;;1.27;0.73;;;;;;;-2.01;74.19;101616.84;5049240;28;20076;-77
2023/01/04 11:05:30;;;;;;;1.92;0.68;;;;;;;-1.96;74.08;101610.25;5048132;28;20045;-77
2023/01/04 11:08:02;;;;;;;3.53;0.60;;;;;;;-1.95;74.61;101607.75;5049348;28;20049;-77
2023/01/04 11:10:34;;;;;;;1.00;0.50;;;;;;;-1.92;74.64;101599.34;5041974;28;20132;-77
2023/01/04 11:13:02;;;;;;;7.20;1.60;;;;;;;-1.91;74.41;101588.28;5047250;28;20045;-77
2023/01/04 11:15:29;;;;;;;4.68;1.25;;;;;;;-1.87;74.47;101585.06;5051224;28;20617;-77
2023/01/04 11:17:57;;;;;;;1.27;0.40;;;;;;;-1.85;74.40;101578.28;5049180;28;20045;-78
2023/01/04 11:20:24;;;;;;;2.28;0.95;;;;;;;-1.81;74.65;101564.84;5054375;28;20051;-77
2023/01/04 11:22:59;;;;;;;0.60;0.40;;;;;;;-1.83;74.41;101557.06;5050949;28;20059;-78
2023/01/04 11:25:28;;;;;;;2.65;0.50;;;;;;;-1.79;74.57;101552.09;5052366;28;20831;-77
2023/01/04 11:28:01;;;;;;;2.22;0.60;;;;;;;-1.75;74.44;101542.06;5053609;28;20128;-77
2023/01/04 11:30:36;;;;;;;2.00;0.63;;;;;;;-1.73;74.85;101543.00;5053170;28;20403;-78
2023/01/04 11:33:09;;;;;;;3.55;0.75;;;;;;;-1.72;74.68;101534.50;5053725;28;20120;-77
2023/01/04 11:35:42;;;;;;;2.05;1.17;;;;;;;-1.71;74.62;101526.00;5052202;28;20495;-77
2023/01/04 11:38:16;;;;;;;1.52;0.70;;;;;;;-1.73;74.79;101516.53;5054600;28;20120;-77
2023/01/04 11:40:58;;;;;;;2.70;0.80;;;;;;;-1.70;74.47;101514.97;5049711;28;20095;-77
2023/01/04 11:43:27;;;;;;;3.50;0.90;;;;;;;-1.69;74.88;101503.91;5051718;28;20043;-77
2023/01/04 11:46:05;;;;;;;2.55;0.68;;;;;;;-1.68;74.28;101492.84;5050869;28;20044;-77
2023/01/04 11:48:38;;;;;;;1.95;0.70;;;;;;;-1.69;74.51;101478.28;5052044;28;20051;-78
2023/01/04 11:51:15;;;;;;;2.65;1.00;;;;;;;-1.63;74.71;101482.78;5049987;28;20061;-76
2023/01/04 11:53:43;;;;;;;1.55;0.50;;;;;;;-1.62;74.94;101472.63;5048985;28;20499;-76
2023/01/04 11:56:21;;;;;;;1.02;0.50;;;;;;;-1.60;74.70;101470.97;5049006;28;20422;-76
2023/01/04 11:59:10;;;;;;;2.72;0.82;;;;;;;-1.57;75.04;101467.66;5048830;28;20510;-77
2023/01/04 12:01:40;;;;;;;4.72;0.50;;;;;;;-1.60;75.02;101453.03;5051597;28;20495;-78
2023/01/04 12:04:12;;;;;;;1.30;0.30;;;;;;;-1.55;74.74;101448.13;5050439;28;20049;-77
2023/01/04 12:06:43;;;;;;;1.35;0.32;;;;;;;-1.52;74.95;101452.50;5051837;28;20076;-77
2023/01/04 12:09:15;;;;;;;1.40;0.47;;;;;;;-1.51;75.13;101442.28;5052980;28;20043;-78
2023/01/04 12:11:45;;;;;;;1.20;0.40;;;;;;;-1.49;75.11;101438.13;5051936;28;20049;-78
2023/01/04 12:14:21;;;;;;;1.17;0.60;;;;;;;-1.47;75.52;101438.19;5045963;28;20038;-77
2023/01/04 12:17:03;;;;;;;2.67;0.55;;;;;;;-1.48;75.86;101421.06;5052505;28;20045;-77
2023/01/04 12:19:30;;;;;;;1.42;1.17;;;;;;;-1.45;75.48;101416.94;5050875;28;20052;-76
2023/01/04 12:22:00;;;;;;;1.20;0.45;;;;;;;-1.52;75.91;101391.00;5046957;28;20051;-76
2023/01/04 12:24:31;;;;;;;2.55;0.50;;;;;;;-1.37;75.68;101404.41;5050023;28;20506;-77